sensor_id;sensor_type;location;lat;lon;timestamp;pressure;altitude;pressure_sealevel;temperature;humidity
30421;BME280;17218;54.070;10.012;2023-04-26T00:01:25;101149.44;;;4.09;100.00
30421;BME280;17218;54.070;10.012;2023-04-26T00:03:53;101139.88;;;4.03;100.00
30421;BME280;17218;54.070;10.012;2023-04-26T00:06:21;101132.88;;;3.98;100.00
30421;BME280;17218;54.070;10.012;2023-04-26T00:08:48;101125.81;;;3.89;100.00
30421;BME280;17218;54.070;10.012;2023-04-26T00:11:14;101133.47;;;3.87;100.00
30421;BME280;17218;54.070;10.012;2023-04-26T00:13:41;101127.47;;;3.87;100.00
30421;BME280;17218;54.070;10.012;2023-04-26T00:16:07;101129.06;;;3.81;100.00
30421;BME280;17218;54.070;10.012;2023-04-26T00:18:34;101141.72;;;3.75;100.00
30421;BME280;17218;54.070;10.012;2023-04-26T00:21:01;101132.72;;;3.59;100.00
30421;BME280;17218;54.070;10.012;2023-04-26T00:23:29;101130.00;;;3.53;100.00
30421;BME280;17218;54.070;10.012;2023-04-26T00:25:56;101127.22;;;3.45;100.00
30421;BME280;17218;54.070;10.012;2023-04-26T00:28:22;101129.03;;;3.49;100.00
30421;BME280;17218;54.070;10.012;2023-04-26T00:30:49;101134.94;;;3.46;100.00
30421;BME280;17218;54.070;10.012;2023-04-26T00:33:15;101135.59;;;3.39;100.00
30421;BME280;17218;54.070;10.012;2023-04-26T00:35:42;101141.63;;;3.41;100.00
30421;BME280;17218;54.070;10.012;2023-04-26T00:38:08;101137.13;;;3.32;100.00
30421;BME280;17218;54.070;10.012;2023-04-26T00:40:36;101133.69;;;3.32;100.00
30421;BME280;17218;54.070;10.012;2023-04-26T00:43:04;101140.47;;;3.31;100.00
30421;BME280;17218;54.070;10.012;2023-04-26T00:45:31;101135.84;;;3.18;100.00
30421;BME280;17218;54.070;10.012;2023-04-26T00:47:58;101141.16;;;2.96;100.00
30421;BME280;17218;54.070;10.012;2023-04-26T00:50:26;101133.53;;;2.98;100.00
30421;BME280;17218;54.070;10.012;2023-04-26T00:52:54;101146.81;;;3.14;100.00
30421;BME280;17218;54.070;10.012;2023-04-26T00:55:21;101134.50;;;3.31;100.00
30421;BME280;17218;54.070;10.012;2023-04-26T00:57:49;101144.28;;;3.44;100.00
30421;BME280;17218;54.070;10.012;2023-04-26T01:00:16;101130.69;;;3.47;100.00
30421;BME280;17218;54.070;10.012;2023-04-26T01:02:42;101137.31;;;3.40;100.00
30421;BME280;17218;54.070;10.012;2023-04-26T01:05:09;101140.63;;;3.36;100.00
30421;BME280;17218;54.070;10.012;2023-04-26T01:07:36;101135.56;;;3.38;100.00
30421;BME280;17218;54.070;10.012;2023-04-26T01:10:03;101140.28;;;3.24;100.00
30421;BME280;17218;54.070;10.012;2023-04-26T01:12:30;101140.97;;;3.18;100.00
30421;BME280;17218;54.070;10.012;2023-04-26T01:14:59;101141.78;;;3.17;100.00
30421;BME280;17218;54.070;10.012;2023-04-26T01:17:25;101146.22;;;3.22;100.00
30421;BME280;17218;54.070;10.012;2023-04-26T01:19:52;101136.81;;;3.21;100.00
30421;BME280;17218;54.070;10.012;2023-04-26T01:22:18;101146.59;;;3.37;100.00
30421;BME280;17218;54.070;10.012;2023-04-26T01:24:49;101161.47;;;3.49;100.00
30421;BME280;17218;54.070;10.012;2023-04-26T01:27:15;101157.19;;;3.48;100.00
30421;BME280;17218;54.070;10.012;2023-04-26T01:29:42;101161.25;;;3.41;100.00
30421;BME280;17218;54.070;10.012;2023-04-26T01:32:10;101160.81;;;3.25;100.00
30421;BME280;17218;54.070;10.012;2023-04-26T01:34:37;101164.31;;;3.29;100.00
30421;BME280;17218;54.070;10.012;2023-04-26T01:37:03;101159.97;;;3.26;100.00
30421;BME280;17218;54.070;10.012;2023-04-26T01:39:32;101164.84;;;3.18;100.00
30421;BME280;17218;54.070;10.012;2023-04-26T01:41:59;101155.03;;;3.32;100.00
30421;BME280;17218;54.070;10.012;2023-04-26T01:44:27;101157.31;;;3.52;100.00
30421;BME280;17218;54.070;10.012;2023-04-26T01:46:53;101147.41;;;3.65;100.00
30421;BME280;17218;54.070;10.012;2023-04-26T01:49:20;101145.81;;;3.70;100.00
30421;BME280;17218;54.070;10.012;2023-04-26T01:51:46;101150.25;;;3.76;100.00
30421;BME280;17218;54.070;10.012;2023-04-26T01:54:13;101149.44;;;3.77;100.00
30421;BME280;17218;54.070;10.012;2023-04-26T01:56:39;101139.84;;;3.69;100.00
30421;BME280;17218;54.070;10.012;2023-04-26T01:59:07;101139.63;;;3.62;100.00
30421;BME280;17218;54.070;10.012;2023-04-26T02:01:34;101148.84;;;3.55;100.00
30421;BME280;17218;54.070;10.012;2023-04-26T02:04:01;101154.75;;;3.52;100.00
30421;BME280;17218;54.070;10.012;2023-04-26T02:06:28;101157.75;;;3.39;100.00
30421;BME280;17218;54.070;10.012;2023-04-26T02:08:55;101146.22;;;3.22;100.00
30421;BME280;17218;54.070;10.012;2023-04-26T02:11:22;101156.44;;;3.22;100.00
30421;BME280;17218;54.070;10.012;2023-04-26T02:13:48;101155.84;;;3.31;100.00
30421;BME280;17218;54.070;10.012;2023-04-26T02:16:16;101159.97;;;3.26;100.00
30421;BME280;17218;54.070;10.012;2023-04-26T02:18:43;101166.72;;;3.24;100.00
30421;BME280;17218;54.070;10.012;2023-04-26T02:21:10;101166.72;;;3.24;100.00
30421;BME280;17218;54.070;10.012;2023-04-26T02:23:36;101161.38;;;3.16;100.00
30421;BME280;17218;54.070;10.012;2023-04-26T02:26:03;101163.94;;;3.16;100.00
30421;BME280;17218;54.070;10.012;2023-04-26T02:28:29;101161.44;;;3.18;100.00
30421;BME280;17218;54.070;10.012;2023-04-26T02:30:56;101159.56;;;3.12;100.00
30421;BME280;17218;54.070;10.012;2023-04-26T02:33:24;101166.00;;;2.99;100.00
30421;BME280;17218;54.070;10.012;2023-04-26T02:35:50;101166.72;;;2.95;100.00
30421;BME280;17218;54.070;10.012;2023-04-26T02:38:17;101165.75;;;2.91;100.00
30421;BME280;17218;54.070;10.012;2023-04-26T02:40:43;101176.72;;;2.87;100.00
30421;BME280;17218;54.070;10.012;2023-04-26T02:43:10;101175.03;;;2.88;100.00
30421;BME280;17218;54.070;10.012;2023-04-26T02:45:40;101171.84;;;2.95;100.00
30421;BME280;17218;54.070;10.012;2023-04-26T02:48:06;101165.00;;;2.94;100.00
30421;BME280;17218;54.070;10.012;2023-04-26T02:50:34;101169.00;;;2.85;100.00
30421;BME280;17218;54.070;10.012;2023-04-26T02:53:01;101169.31;;;2.69;100.00
30421;BME280;17218;54.070;10.012;2023-04-26T02:55:28;101172.72;;;2.68;100.00
30421;BME280;17218;54.070;10.012;2023-04-26T02:57:54;101168.22;;;2.60;100.00
30421;BME280;17218;54.070;10.012;2023-04-26T03:00:21;101168.50;;;2.70;100.00
30421;BME280;17218;54.070;10.012;2023-04-26T03:02:48;101170.19;;;2.69;100.00
30421;BME280;17218;54.070;10.012;2023-04-26T03:05:14;101169.28;;;2.67;100.00
30421;BME280;17218;54.070;10.012;2023-04-26T03:07:43;101167.47;;;2.65;100.00
30421;BME280;17218;54.070;10.012;2023-04-26T03:10:09;101169.13;;;2.62;100.00
30421;BME280;17218;54.070;10.012;2023-04-26T03:15:58;101173.06;;;2.53;100.00
30421;BME280;17218;54.070;10.012;2023-04-26T03:18:25;101171.47;;;2.56;100.00
30421;BME280;17218;54.070;10.012;2023-04-26T03:20:51;101165.41;;;2.53;100.00
30421;BME280;17218;54.070;10.012;2023-04-26T03:23:19;101174.91;;;2.57;100.00
30421;BME280;17218;54.070;10.012;2023-04-26T03:25:48;101174.59;;;2.47;100.00
30421;BME280;17218;54.070;10.012;2023-04-26T03:28:15;101170.81;;;2.36;100.00
30421;BME280;17218;54.070;10.012;2023-04-26T03:30:41;101168.03;;;2.30;100.00
30421;BME280;17218;54.070;10.012;2023-04-26T03:33:08;101162.84;;;2.26;100.00
30421;BME280;17218;54.070;10.012;2023-04-26T03:35:34;101172.22;;;2.28;100.00
30421;BME280;17218;54.070;10.012;2023-04-26T03:38:01;101179.81;;;2.24;100.00
30421;BME280;17218;54.070;10.012;2023-04-26T03:40:28;101166.94;;;2.21;100.00
30421;BME280;17218;54.070;10.012;2023-04-26T03:42:55;101173.13;;;2.28;100.00
30421;BME280;17218;54.070;10.012;2023-04-26T03:45:21;101172.66;;;2.40;100.00
30421;BME280;17218;54.070;10.012;2023-04-26T03:47:48;101169.31;;;2.43;100.00
30421;BME280;17218;54.070;10.012;2023-04-26T03:50:15;101173.63;;;2.44;100.00
30421;BME280;17218;54.070;10.012;2023-04-26T03:52:42;101181.06;;;2.36;100.00
30421;BME280;17218;54.070;10.012;2023-04-26T03:55:09;101183.13;;;2.48;100.00
30421;BME280;17218;54.070;10.012;2023-04-26T03:57:37;101190.19;;;2.55;100.00
30421;BME280;17218;54.070;10.012;2023-04-26T04:00:05;101184.31;;;2.58;100.00
30421;BME280;17218;54.070;10.012;2023-04-26T04:02:34;101186.16;;;2.62;100.00
30421;BME280;17218;54.070;10.012;2023-04-26T04:05:00;101180.50;;;2.72;100.00
30421;BME280;17218;54.070;10.012;2023-04-26T04:07:27;101189.47;;;2.85;100.00
30421;BME280;17218;54.070;10.012;2023-04-26T04:09:53;101184.63;;;2.95;100.00
30421;BME280;17218;54.070;10.012;2023-04-26T04:12:20;101161.97;;;3.07;100.00
30421;BME280;17218;54.070;10.012;2023-04-26T04:14:48;101180.25;;;3.20;100.00
30421;BME280;17218;54.070;10.012;2023-04-26T04:17:15;101182.22;;;3.27;100.00
30421;BME280;17218;54.070;10.012;2023-04-26T04:19:41;101179.56;;;3.26;100.00
30421;BME280;17218;54.070;10.012;2023-04-26T04:22:09;101178.84;;;3.30;100.00
30421;BME280;17218;54.070;10.012;2023-04-26T04:24:35;101182.28;;;3.30;100.00
30421;BME280;17218;54.070;10.012;2023-04-26T04:27:02;101187.50;;;3.33;100.00
30421;BME280;17218;54.070;10.012;2023-04-26T04:29:29;101184.84;;;3.30;100.00
30421;BME280;17218;54.070;10.012;2023-04-26T04:31:58;101186.88;;;3.13;100.00
30421;BME280;17218;54.070;10.012;2023-04-26T04:34:25;101189.41;;;3.12;100.00
30421;BME280;17218;54.070;10.012;2023-04-26T04:36:51;101185.22;;;3.14;100.00
30421;BME280;17218;54.070;10.012;2023-04-26T04:39:18;101189.06;;;3.28;100.00
30421;BME280;17218;54.070;10.012;2023-04-26T04:41:44;101188.41;;;3.36;100.00
30421;BME280;17218;54.070;10.012;2023-04-26T04:44:12;101190.28;;;3.41;100.00
30421;BME280;17218;54.070;10.012;2023-04-26T04:46:40;101187.94;;;3.48;100.00
30421;BME280;17218;54.070;10.012;2023-04-26T04:49:08;101193.91;;;3.48;100.00
30421;BME280;17218;54.070;10.012;2023-04-26T04:51:35;101195.38;;;3.40;100.00
30421;BME280;17218;54.070;10.012;2023-04-26T04:54:08;101202.25;;;3.42;100.00
30421;BME280;17218;54.070;10.012;2023-04-26T04:56:35;101190.22;;;3.38;100.00
30421;BME280;17218;54.070;10.012;2023-04-26T04:59:01;101192.44;;;3.27;100.00
30421;BME280;17218;54.070;10.012;2023-04-26T05:01:29;101193.22;;;3.25;100.00
30421;BME280;17218;54.070;10.012;2023-04-26T05:03:56;101198.34;;;3.25;100.00
30421;BME280;17218;54.070;10.012;2023-04-26T05:06:25;101198.19;;;3.20;100.00
30421;BME280;17218;54.070;10.012;2023-04-26T05:08:52;101201.19;;;3.06;100.00
30421;BME280;17218;54.070;10.012;2023-04-26T05:11:18;101199.22;;;2.97;100.00
30421;BME280;17218;54.070;10.012;2023-04-26T05:13:45;101210.53;;;3.04;100.00
30421;BME280;17218;54.070;10.012;2023-04-26T05:16:12;101200.41;;;3.09;100.00
30421;BME280;17218;54.070;10.012;2023-04-26T05:18:39;101198.19;;;3.20;100.00
30421;BME280;17218;54.070;10.012;2023-04-26T05:21:05;101201.72;;;3.24;100.00
30421;BME280;17218;54.070;10.012;2023-04-26T05:23:34;101205.13;;;3.24;100.00
30421;BME280;17218;54.070;10.012;2023-04-26T05:26:01;101208.13;;;3.38;100.00
30421;BME280;17218;54.070;10.012;2023-04-26T05:28:28;101201.69;;;3.51;100.00
30421;BME280;17218;54.070;10.012;2023-04-26T05:30:55;101214.69;;;3.59;100.00
30421;BME280;17218;54.070;10.012;2023-04-26T05:33:22;101204.28;;;3.53;100.00
30421;BME280;17218;54.070;10.012;2023-04-26T05:35:48;101211.28;;;3.58;100.00
30421;BME280;17218;54.070;10.012;2023-04-26T05:38:16;101218.91;;;3.57;100.00
30421;BME280;17218;54.070;10.012;2023-04-26T05:40:44;101214.91;;;3.65;100.00
30421;BME280;17218;54.070;10.012;2023-04-26T05:43:12;101217.94;;;3.83;100.00
30421;BME280;17218;54.070;10.012;2023-04-26T05:45:39;101215.25;;;3.78;100.00
30421;BME280;17218;54.070;10.012;2023-04-26T05:48:05;101212.69;;;3.78;100.00
30421;BME280;17218;54.070;10.012;2023-04-26T05:50:32;101222.50;;;3.93;100.00
30421;BME280;17218;54.070;10.012;2023-04-26T05:52:58;101218.44;;;4.01;100.00
30421;BME280;17218;54.070;10.012;2023-04-26T05:55:25;101222.28;;;4.16;100.00
30421;BME280;17218;54.070;10.012;2023-04-26T05:57:53;101217.81;;;4.09;100.00
30421;BME280;17218;54.070;10.012;2023-04-26T06:00:23;101217.22;;;4.19;100.00
30421;BME280;17218;54.070;10.012;2023-04-26T06:02:49;101214.69;;;4.21;100.00
30421;BME280;17218;54.070;10.012;2023-04-26T06:05:16;101209.66;;;4.25;100.00
30421;BME280;17218;54.070;10.012;2023-04-26T06:07:43;101206.38;;;4.29;100.00
30421;BME280;17218;54.070;10.012;2023-04-26T06:10:10;101220.56;;;4.49;100.00
30421;BME280;17218;54.070;10.012;2023-04-26T06:12:37;101206.91;;;4.51;100.00
30421;BME280;17218;54.070;10.012;2023-04-26T06:15:07;101212.25;;;4.59;100.00
30421;BME280;17218;54.070;10.012;2023-04-26T06:17:33;101216.41;;;4.54;100.00
30421;BME280;17218;54.070;10.012;2023-04-26T06:20:00;101200.25;;;4.58;100.00
30421;BME280;17218;54.070;10.012;2023-04-26T06:22:27;101209.31;;;4.79;100.00
30421;BME280;17218;54.070;10.012;2023-04-26T06:24:53;101208.59;;;4.85;100.00
30421;BME280;17218;54.070;10.012;2023-04-26T06:27:19;101204.84;;;5.09;100.00
30421;BME280;17218;54.070;10.012;2023-04-26T06:29:48;101205.03;;;5.17;100.00
30421;BME280;17218;54.070;10.012;2023-04-26T06:32:17;101203.47;;;5.23;100.00
30421;BME280;17218;54.070;10.012;2023-04-26T06:34:43;101211.34;;;5.31;100.00
30421;BME280;17218;54.070;10.012;2023-04-26T06:37:10;101206.25;;;5.33;100.00
30421;BME280;17218;54.070;10.012;2023-04-26T06:39:37;101204.50;;;5.30;100.00
30421;BME280;17218;54.070;10.012;2023-04-26T06:42:04;101206.44;;;5.42;100.00
30421;BME280;17218;54.070;10.012;2023-04-26T06:44:30;101202.16;;;5.41;100.00
30421;BME280;17218;54.070;10.012;2023-04-26T06:46:57;101198.94;;;5.52;100.00
30421;BME280;17218;54.070;10.012;2023-04-26T06:49:25;101214.59;;;5.64;100.00
30421;BME280;17218;54.070;10.012;2023-04-26T06:51:52;101216.31;;;5.62;100.00
30421;BME280;17218;54.070;10.012;2023-04-26T06:54:18;101205.97;;;5.60;100.00
30421;BME280;17218;54.070;10.012;2023-04-26T06:56:45;101207.91;;;5.71;100.00
30421;BME280;17218;54.070;10.012;2023-04-26T06:59:11;101209.66;;;5.73;100.00
30421;BME280;17218;54.070;10.012;2023-04-26T07:01:38;101213.22;;;5.79;100.00
30421;BME280;17218;54.070;10.012;2023-04-26T07:04:05;101213.44;;;5.90;100.00
30421;BME280;17218;54.070;10.012;2023-04-26T07:06:36;101214.56;;;6.04;100.00
30421;BME280;17218;54.070;10.012;2023-04-26T07:09:02;101207.81;;;6.10;100.00
30421;BME280;17218;54.070;10.012;2023-04-26T07:11:30;101220.88;;;6.19;100.00
30421;BME280;17218;54.070;10.012;2023-04-26T07:13:56;101218.50;;;6.31;100.00
30421;BME280;17218;54.070;10.012;2023-04-26T07:16:23;101222.84;;;6.34;100.00
30421;BME280;17218;54.070;10.012;2023-04-26T07:18:50;101210.91;;;6.38;100.00
30421;BME280;17218;54.070;10.012;2023-04-26T07:21:17;101216.34;;;6.55;100.00
30421;BME280;17218;54.070;10.012;2023-04-26T07:23:45;101213.28;;;6.78;100.00
30421;BME280;17218;54.070;10.012;2023-04-26T07:26:11;101227.41;;;7.02;100.00
30421;BME280;17218;54.070;10.012;2023-04-26T07:28:38;101222.56;;;7.24;100.00
30421;BME280;17218;54.070;10.012;2023-04-26T07:31:04;101217.69;;;7.46;100.00
30421;BME280;17218;54.070;10.012;2023-04-26T07:33:31;101220.66;;;7.75;100.00
30421;BME280;17218;54.070;10.012;2023-04-26T07:35:58;101225.81;;;7.75;100.00
30421;BME280;17218;54.070;10.012;2023-04-26T07:38:26;101222.41;;;7.77;100.00
30421;BME280;17218;54.070;10.012;2023-04-26T07:40:54;101215.34;;;7.61;100.00
30421;BME280;17218;54.070;10.012;2023-04-26T07:43:21;101223.53;;;7.32;100.00
30421;BME280;17218;54.070;10.012;2023-04-26T07:45:48;101239.56;;;7.12;100.00
30421;BME280;17218;54.070;10.012;2023-04-26T07:48:16;101224.72;;;6.97;100.00
30421;BME280;17218;54.070;10.012;2023-04-26T07:50:42;101236.91;;;7.06;100.00
30421;BME280;17218;54.070;10.012;2023-04-26T07:53:09;101226.00;;;7.23;100.00
30421;BME280;17218;54.070;10.012;2023-04-26T07:55:35;101229.66;;;7.39;100.00
30421;BME280;17218;54.070;10.012;2023-04-26T07:58:03;101234.28;;;7.63;100.00
30421;BME280;17218;54.070;10.012;2023-04-26T08:00:30;101236.22;;;7.83;100.00
30421;BME280;17218;54.070;10.012;2023-04-26T08:02:56;101244.00;;;7.88;100.00
30421;BME280;17218;54.070;10.012;2023-04-26T08:05:23;101242.31;;;7.90;100.00
30421;BME280;17218;54.070;10.012;2023-04-26T08:07:49;101245.88;;;8.00;100.00
30421;BME280;17218;54.070;10.012;2023-04-26T08:10:16;101236.47;;;8.07;100.00
30421;BME280;17218;54.070;10.012;2023-04-26T08:12:42;101239.22;;;8.21;100.00
30421;BME280;17218;54.070;10.012;2023-04-26T08:15:11;101228.06;;;8.27;100.00
30421;BME280;17218;54.070;10.012;2023-04-26T08:17:38;101241.16;;;8.41;100.00
30421;BME280;17218;54.070;10.012;2023-04-26T08:20:06;101253.16;;;8.35;100.00
30421;BME280;17218;54.070;10.012;2023-04-26T08:22:33;101253.94;;;8.28;100.00
30421;BME280;17218;54.070;10.012;2023-04-26T08:25:00;101248.91;;;8.42;100.00
30421;BME280;17218;54.070;10.012;2023-04-26T08:27:26;101247.44;;;8.66;100.00
30421;BME280;17218;54.070;10.012;2023-04-26T08:29:53;101250.09;;;8.74;100.00
30421;BME280;17218;54.070;10.012;2023-04-26T08:32:21;101254.47;;;8.83;100.00
30421;BME280;17218;54.070;10.012;2023-04-26T08:34:47;101253.72;;;8.98;100.00
30421;BME280;17218;54.070;10.012;2023-04-26T08:37:14;101257.94;;;8.90;100.00
30421;BME280;17218;54.070;10.012;2023-04-26T08:39:40;101256.44;;;9.17;100.00
30421;BME280;17218;54.070;10.012;2023-04-26T08:42:13;101245.09;;;9.01;100.00
30421;BME280;17218;54.070;10.012;2023-04-26T08:44:41;101247.00;;;9.27;100.00
30421;BME280;17218;54.070;10.012;2023-04-26T08:47:13;101243.66;;;9.39;100.00
30421;BME280;17218;54.070;10.012;2023-04-26T08:49:43;101248.00;;;9.43;100.00
30421;BME280;17218;54.070;10.012;2023-04-26T08:52:13;101244.59;;;9.57;100.00
30421;BME280;17218;54.070;10.012;2023-04-26T08:54:41;101250.63;;;9.57;100.00
30421;BME280;17218;54.070;10.012;2023-04-26T08:57:08;101240.25;;;9.46;100.00
30421;BME280;17218;54.070;10.012;2023-04-26T08:59:36;101235.09;;;9.52;100.00
30421;BME280;17218;54.070;10.012;2023-04-26T09:02:04;101240.38;;;9.77;100.00
30421;BME280;17218;54.070;10.012;2023-04-26T09:04:30;101255.19;;;10.11;100.00
30421;BME280;17218;54.070;10.012;2023-04-26T09:07:00;101231.88;;;10.16;100.00
30421;BME280;17218;54.070;10.012;2023-04-26T09:09:27;101238.00;;;10.48;100.00
30421;BME280;17218;54.070;10.012;2023-04-26T09:11:56;101235.38;;;10.43;99.73
30421;BME280;17218;54.070;10.012;2023-04-26T09:14:24;101260.34;;;10.16;100.00
30421;BME280;17218;54.070;10.012;2023-04-26T09:16:52;101245.56;;;9.79;100.00
30421;BME280;17218;54.070;10.012;2023-04-26T09:19:33;101256.75;;;9.70;100.00
30421;BME280;17218;54.070;10.012;2023-04-26T09:22:03;101267.94;;;9.66;100.00
30421;BME280;17218;54.070;10.012;2023-04-26T09:24:45;101271.47;;;9.87;100.00
30421;BME280;17218;54.070;10.012;2023-04-26T09:27:12;101260.41;;;10.41;100.00
30421;BME280;17218;54.070;10.012;2023-04-26T09:29:39;101268.25;;;10.88;100.00
30421;BME280;17218;54.070;10.012;2023-04-26T09:32:06;101267.38;;;10.95;94.30
30421;BME280;17218;54.070;10.012;2023-04-26T09:34:44;101275.16;;;10.66;95.10
30421;BME280;17218;54.070;10.012;2023-04-26T09:37:12;101274.06;;;9.87;98.23
30421;BME280;17218;54.070;10.012;2023-04-26T09:39:40;101271.44;;;9.77;100.00
30421;BME280;17218;54.070;10.012;2023-04-26T09:42:07;101284.97;;;9.36;100.00
30421;BME280;17218;54.070;10.012;2023-04-26T09:44:34;101271.34;;;9.57;100.00
30421;BME280;17218;54.070;10.012;2023-04-26T09:47:02;101271.38;;;9.70;100.00
30421;BME280;17218;54.070;10.012;2023-04-26T09:49:30;101267.97;;;9.74;100.00
30421;BME280;17218;54.070;10.012;2023-04-26T09:52:04;101274.06;;;9.93;100.00
30421;BME280;17218;54.070;10.012;2023-04-26T09:54:40;101268.88;;;9.85;100.00
30421;BME280;17218;54.070;10.012;2023-04-26T09:57:07;101255.22;;;10.22;100.00
30421;BME280;17218;54.070;10.012;2023-04-26T09:59:41;101255.28;;;10.61;100.00
30421;BME280;17218;54.070;10.012;2023-04-26T10:02:13;101263.91;;;11.04;100.00
30421;BME280;17218;54.070;10.012;2023-04-26T10:04:41;101259.53;;;11.44;100.00
30421;BME280;17218;54.070;10.012;2023-04-26T10:07:10;101264.69;;;11.64;100.00
30421;BME280;17218;54.070;10.012;2023-04-26T10:09:37;101273.22;;;11.91;100.00
30421;BME280;17218;54.070;10.012;2023-04-26T10:12:05;101269.81;;;11.75;100.00
30421;BME280;17218;54.070;10.012;2023-04-26T10:14:33;101262.13;;;11.53;100.00
30421;BME280;17218;54.070;10.012;2023-04-26T10:17:02;101273.34;;;11.52;100.00
30421;BME280;17218;54.070;10.012;2023-04-26T10:19:29;101273.34;;;11.60;100.00
30421;BME280;17218;54.070;10.012;2023-04-26T10:21:59;101267.06;;;12.16;100.00
30421;BME280;17218;54.070;10.012;2023-04-26T10:24:27;101267.75;;;12.45;96.88
30421;BME280;17218;54.070;10.012;2023-04-26T10:26:54;101264.34;;;12.43;92.43
30421;BME280;17218;54.070;10.012;2023-04-26T10:29:24;101275.06;;;11.61;99.82
30421;BME280;17218;54.070;10.012;2023-04-26T10:32:05;101275.09;;;11.49;100.00
30421;BME280;17218;54.070;10.012;2023-04-26T10:34:34;101277.72;;;11.33;100.00
30421;BME280;17218;54.070;10.012;2023-04-26T10:37:09;101273.44;;;10.96;100.00
30421;BME280;17218;54.070;10.012;2023-04-26T10:39:36;101287.28;;;10.76;100.00
30421;BME280;17218;54.070;10.012;2023-04-26T10:42:16;101275.16;;;10.89;100.00
30421;BME280;17218;54.070;10.012;2023-04-26T10:44:48;101276.88;;;11.03;92.81
30421;BME280;17218;54.070;10.012;2023-04-26T10:47:27;101282.06;;;11.21;90.10
30421;BME280;17218;54.070;10.012;2023-04-26T10:50:01;101291.53;;;11.32;80.83
30421;BME280;17218;54.070;10.012;2023-04-26T10:52:28;101291.53;;;11.41;81.61
30421;BME280;17218;54.070;10.012;2023-04-26T10:54:56;101284.53;;;11.78;85.88
30421;BME280;17218;54.070;10.012;2023-04-26T10:57:45;101281.88;;;11.86;77.87
30421;BME280;17218;54.070;10.012;2023-04-26T11:00:26;101278.50;;;11.66;79.22
30421;BME280;17218;54.070;10.012;2023-04-26T11:02:55;101281.03;;;11.87;92.97
30421;BME280;17218;54.070;10.012;2023-04-26T11:05:51;101273.91;;;12.34;84.75
30421;BME280;17218;54.070;10.012;2023-04-26T11:08:19;101270.22;;;12.63;79.19
30421;BME280;17218;54.070;10.012;2023-04-26T11:10:50;101282.16;;;12.90;80.48
30421;BME280;17218;54.070;10.012;2023-04-26T11:13:18;101274.25;;;13.05;77.05
30421;BME280;17218;54.070;10.012;2023-04-26T11:15:51;101276.66;;;13.26;78.89
30421;BME280;17218;54.070;10.012;2023-04-26T11:18:20;101263.44;;;13.43;71.11
30421;BME280;17218;54.070;10.012;2023-04-26T11:20:46;101265.59;;;13.85;77.82
30421;BME280;17218;54.070;10.012;2023-04-26T11:23:13;101270.94;;;14.39;81.62
30421;BME280;17218;54.070;10.012;2023-04-26T11:25:40;101259.22;;;15.20;73.03
30421;BME280;17218;54.070;10.012;2023-04-26T11:28:07;101268.59;;;15.32;65.11
30421;BME280;17218;54.070;10.012;2023-04-26T11:30:34;101274.97;;;15.16;64.56
30421;BME280;17218;54.070;10.012;2023-04-26T11:33:04;101287.31;;;14.50;66.67
30421;BME280;17218;54.070;10.012;2023-04-26T11:35:32;101288.16;;;15.08;67.51
30421;BME280;17218;54.070;10.012;2023-04-26T11:38:03;101286.41;;;15.56;59.78
30421;BME280;17218;54.070;10.012;2023-04-26T11:40:32;101294.66;;;14.80;56.61
30421;BME280;17218;54.070;10.012;2023-04-26T11:43:01;101279.63;;;14.39;61.41
30421;BME280;17218;54.070;10.012;2023-04-26T11:45:27;101293.19;;;14.00;60.91
30421;BME280;17218;54.070;10.012;2023-04-26T11:47:54;101291.84;;;14.36;63.93
30421;BME280;17218;54.070;10.012;2023-04-26T11:50:23;101292.94;;;14.81;63.56
30421;BME280;17218;54.070;10.012;2023-04-26T11:52:52;101296.50;;;14.13;68.92
30421;BME280;17218;54.070;10.012;2023-04-26T11:55:23;101302.81;;;13.10;82.64
30421;BME280;17218;54.070;10.012;2023-04-26T11:57:52;101306.69;;;12.52;88.93
30421;BME280;17218;54.070;10.012;2023-04-26T12:00:19;101315.59;;;12.11;95.19
30421;BME280;17218;54.070;10.012;2023-04-26T12:02:47;101308.78;;;11.60;95.67
30421;BME280;17218;54.070;10.012;2023-04-26T12:05:21;101322.69;;;11.07;96.86
30421;BME280;17218;54.070;10.012;2023-04-26T12:07:54;101327.00;;;10.80;100.00
30421;BME280;17218;54.070;10.012;2023-04-26T12:10:23;101333.91;;;10.68;100.00
30421;BME280;17218;54.070;10.012;2023-04-26T12:12:52;101330.47;;;11.27;100.00
30421;BME280;17218;54.070;10.012;2023-04-26T12:15:22;101324.97;;;12.35;98.06
30421;BME280;17218;54.070;10.012;2023-04-26T12:17:57;101312.75;;;14.93;88.12
30421;BME280;17218;54.070;10.012;2023-04-26T12:20:31;101299.50;;;18.39;65.23
30421;BME280;17218;54.070;10.012;2023-04-26T12:23:04;101302.13;;;20.18;50.75
30421;BME280;17218;54.070;10.012;2023-04-26T12:25:32;101316.09;;;18.95;48.45
30421;BME280;17218;54.070;10.012;2023-04-26T12:27:59;101335.00;;;17.58;53.89
30421;BME280;17218;54.070;10.012;2023-04-26T12:30:27;101319.25;;;16.14;58.57
30421;BME280;17218;54.070;10.012;2023-04-26T12:32:54;101346.41;;;14.48;67.25
30421;BME280;17218;54.070;10.012;2023-04-26T12:35:22;101349.81;;;13.84;75.87
30421;BME280;17218;54.070;10.012;2023-04-26T12:37:48;101357.09;;;12.08;83.79
30421;BME280;17218;54.070;10.012;2023-04-26T12:40:18;101345.03;;;11.89;98.50
30421;BME280;17218;54.070;10.012;2023-04-26T12:42:46;101335.59;;;11.63;100.00
30421;BME280;17218;54.070;10.012;2023-04-26T12:45:13;101327.88;;;11.02;100.00